Minidoka, Idaho
Current Conditions -  °F | °C
As of 1:53 PM on Friday 19 Dec 2014 (Local Time) from KBYI Reporting Station
Overcast Overcast  
Wind Chill: 41°   Ceiling: 4900
Heat Index: 45°   Visibility: 10mi
Dew Point: 30°   Wind: 8mph
Humidity: 56%   Direction: 210°SSW
Pressure: 30.04"   Gusts: NA
Location:  42.75°N, 113.49°W
Report Text: KBYI 192053Z AUTO 21007KT 10SM FEW038 BKN049 OVC060 07/M01 A3004 RMK AO2 SLP173 T00721011 55012
Loading
Personal Weather Stations






























Interactive Weather Map New forecast layout! Learn more

10-Day Weather Forecast

Advertisements
Track Severe Weather on mobile